createdAt,value
2022-08-01T00:00:21.979Z,3.10
2022-08-01T00:02:49.230Z,3.35
2022-08-01T00:05:16.830Z,3.60
2022-08-01T00:07:44.225Z,3.70
2022-08-01T00:10:14.860Z,3.63
2022-08-01T00:12:42.950Z,3.60
2022-08-01T00:15:12.982Z,3.78
2022-08-01T00:17:40.531Z,3.42
2022-08-01T00:20:10.776Z,3.42
2022-08-01T00:22:38.301Z,3.80
2022-08-01T00:25:06.516Z,3.65
2022-08-01T00:27:37.621Z,3.58
2022-08-01T00:30:13.473Z,3.95
2022-08-01T00:32:45.363Z,4.00
2022-08-01T00:35:13.956Z,3.90
2022-08-01T00:37:41.147Z,3.88
2022-08-01T00:40:10.191Z,3.65
2022-08-01T00:42:43.308Z,3.72
2022-08-01T00:45:12.912Z,4.22
2022-08-01T00:47:40.575Z,4.20
2022-08-01T00:50:10.597Z,4.13
2022-08-01T00:52:38.426Z,4.07
2022-08-01T00:55:05.989Z,4.32
2022-08-01T00:58:03.476Z,4.10
2022-08-01T01:00:27.153Z,4.22
2022-08-01T01:02:55.071Z,3.92
2022-08-01T01:05:22.591Z,4.22
2022-08-01T01:08:00.196Z,4.45
2022-08-01T01:10:32.088Z,4.45
2022-08-01T01:13:09.021Z,4.00
2022-08-01T01:15:42.681Z,4.20
2022-08-01T01:18:24.884Z,4.45
2022-08-01T01:21:22.417Z,4.10
2022-08-01T01:24:10.302Z,4.47
2022-08-01T01:27:01.776Z,4.40
2022-08-01T01:29:58.660Z,4.57
2022-08-01T01:32:28.659Z,4.28
2022-08-01T01:35:01.691Z,4.55
2022-08-01T01:37:33.184Z,4.40
2022-08-01T01:40:03.979Z,4.78
2022-08-01T01:42:33.182Z,4.47
2022-08-01T01:45:04.218Z,4.68
2022-08-01T01:47:33.763Z,4.60
2022-08-01T01:50:01.700Z,5.40
2022-08-01T01:52:33.063Z,4.57
2022-08-01T01:55:02.566Z,5.18
2022-08-01T01:57:31.865Z,4.95
2022-08-01T02:00:01.480Z,4.95
2022-08-01T02:02:31.488Z,4.78
2022-08-01T02:05:00.444Z,5.07
2022-08-01T02:07:29.353Z,5.05
2022-08-01T02:09:57.819Z,5.10
2022-08-01T02:12:25.592Z,4.78
2022-08-01T02:15:14.472Z,4.85
2022-08-01T02:17:46.525Z,5.75
2022-08-01T02:20:14.679Z,5.03
2022-08-01T02:23:04.003Z,5.70
2022-08-01T02:26:10.285Z,5.78
2022-08-01T02:28:40.477Z,5.28
2022-08-01T02:31:11.768Z,5.38
2022-08-01T02:33:58.540Z,5.55
2022-08-01T02:36:32.884Z,5.97
2022-08-01T02:39:04.754Z,5.57
2022-08-01T02:41:37.192Z,5.43
2022-08-01T02:44:08.176Z,5.72
2022-08-01T02:46:54.121Z,5.95
2022-08-01T02:49:23.025Z,5.93
2022-08-01T02:51:52.766Z,5.55
2022-08-01T02:54:23.481Z,6.15
2022-08-01T02:56:52.605Z,5.90
2022-08-01T02:59:26.807Z,5.65
2022-08-01T03:01:57.278Z,5.78
2022-08-01T03:04:27.779Z,5.53
2022-08-01T03:06:59.597Z,5.50
2022-08-01T03:09:28.853Z,5.88
2022-08-01T03:12:02.059Z,5.70
2022-08-01T03:14:32.095Z,5.90
2022-08-01T03:17:00.905Z,6.30
2022-08-01T03:19:31.496Z,6.18
2022-08-01T03:21:59.977Z,6.00
2022-08-01T03:24:29.621Z,6.47
2022-08-01T03:26:59.321Z,5.90
2022-08-01T03:29:30.999Z,6.00
2022-08-01T03:31:59.706Z,5.90
2022-08-01T03:34:28.727Z,5.90
2022-08-01T03:37:11.032Z,6.50
2022-08-01T03:39:53.355Z,5.85
2022-08-01T03:42:26.711Z,6.32
2022-08-01T03:45:03.856Z,6.57
2022-08-01T03:47:35.053Z,6.50
2022-08-01T03:50:12.881Z,6.30
2022-08-01T03:52:43.200Z,6.55
2022-08-01T03:55:12.999Z,6.03
2022-08-01T03:57:40.989Z,6.20
2022-08-01T04:00:10.273Z,6.72
2022-08-01T04:02:40.973Z,6.07
2022-08-01T04:05:08.768Z,6.78
2022-08-01T04:07:37.332Z,6.60
2022-08-01T04:10:05.803Z,6.75
2022-08-01T04:12:33.796Z,6.00
2022-08-01T04:15:01.151Z,6.32
2022-08-01T04:17:31.767Z,6.05
2022-08-01T04:19:59.123Z,6.07
2022-08-01T04:22:26.484Z,6.13
2022-08-01T04:24:58.640Z,6.60
2022-08-01T04:27:49.727Z,6.43
2022-08-01T04:30:28.631Z,6.35
2022-08-01T04:32:58.690Z,5.93
2022-08-01T04:36:01.989Z,6.00
2022-08-01T04:38:20.547Z,6.97
2022-08-01T04:40:48.246Z,6.40
2022-08-01T04:43:16.106Z,5.97
2022-08-01T04:45:45.955Z,6.22
2022-08-01T04:48:16.524Z,6.53
2022-08-01T04:50:43.820Z,6.00
2022-08-01T04:53:19.915Z,5.88
2022-08-01T04:55:47.681Z,6.18
2022-08-01T04:58:18.952Z,6.45
2022-08-01T05:00:49.562Z,6.45
2022-08-01T05:03:16.921Z,6.55
2022-08-01T05:05:44.090Z,6.10
2022-08-01T05:08:11.344Z,5.88
2022-08-01T05:10:38.592Z,5.90
2022-08-01T05:13:07.735Z,6.00
2022-08-01T05:15:38.826Z,6.50
2022-08-01T05:18:08.576Z,6.90
2022-08-01T05:20:36.142Z,6.13
2022-08-01T05:23:03.771Z,6.10
2022-08-01T05:25:56.650Z,6.47
2022-08-01T05:28:19.268Z,6.47
2022-08-01T05:30:46.924Z,6.50
2022-08-01T05:33:14.169Z,6.50
2022-08-01T05:35:48.183Z,6.45
2022-08-01T05:38:17.431Z,6.18
2022-08-01T05:40:44.699Z,6.75
2022-08-01T05:43:12.120Z,6.80
2022-08-01T05:45:39.498Z,6.20
2022-08-01T05:48:06.944Z,6.43
2022-08-01T05:50:34.900Z,6.50
2022-08-01T05:53:02.204Z,6.35
2022-08-01T05:55:29.845Z,6.38
2022-08-01T05:57:58.064Z,5.88
2022-08-01T06:00:25.364Z,6.32
2022-08-01T06:02:53.044Z,6.57
2022-08-01T06:05:20.345Z,6.50
2022-08-01T06:07:47.880Z,6.55
2022-08-01T06:10:15.090Z,6.18
2022-08-01T06:12:42.469Z,6.63
2022-08-01T06:15:09.918Z,6.40
2022-08-01T06:17:37.259Z,6.57
2022-08-01T06:20:07.277Z,7.93
2022-08-01T06:22:34.622Z,6.82
2022-08-01T06:25:02.194Z,6.80
2022-08-01T06:27:30.806Z,6.32
2022-08-01T06:29:58.229Z,6.45
2022-08-01T06:32:26.704Z,6.47
2022-08-01T06:34:55.874Z,6.15
2022-08-01T06:37:24.445Z,6.38
2022-08-01T06:39:51.709Z,6.63
2022-08-01T06:42:19.182Z,5.85
2022-08-01T06:44:46.828Z,6.13
2022-08-01T06:47:14.190Z,6.10
2022-08-01T06:49:41.427Z,6.13
2022-08-01T06:52:09.161Z,6.00
2022-08-01T06:54:36.858Z,6.00
2022-08-01T06:57:07.672Z,6.35
2022-08-01T06:59:35.038Z,6.13
2022-08-01T07:02:04.123Z,5.88
2022-08-01T07:04:33.342Z,6.10
2022-08-01T07:07:00.870Z,5.90
2022-08-01T07:09:28.572Z,5.70
2022-08-01T07:11:56.761Z,6.07
2022-08-01T07:14:24.835Z,6.05
2022-08-01T07:16:52.442Z,5.97
2022-08-01T07:19:19.968Z,6.10
2022-08-01T07:21:50.122Z,5.63
2022-08-01T07:24:20.844Z,5.28
2022-08-01T07:26:53.306Z,5.95
2022-08-01T07:31:54.410Z,6.15
2022-08-01T07:34:22.901Z,6.05
2022-08-01T07:36:51.354Z,5.75
2022-08-01T07:39:18.685Z,5.65
2022-08-01T07:42:06.651Z,5.40
2022-08-01T07:44:33.920Z,5.75
2022-08-01T07:47:01.117Z,6.13
2022-08-01T07:49:28.785Z,5.63
2022-08-01T07:52:03.294Z,5.72
2022-08-01T07:54:35.316Z,5.40
2022-08-01T07:57:04.248Z,5.47
2022-08-01T07:59:31.662Z,5.90
2022-08-01T08:01:59.431Z,5.35
2022-08-01T08:04:28.400Z,5.20
2022-08-01T08:06:55.880Z,5.20
2022-08-01T08:09:24.237Z,5.10
2022-08-01T08:11:51.467Z,4.88
2022-08-01T08:14:19.731Z,5.32
2022-08-01T08:16:47.178Z,5.25
2022-08-01T08:19:14.575Z,4.95
2022-08-01T08:21:42.994Z,5.38
2022-08-01T08:24:26.278Z,4.88
2022-08-01T08:27:02.134Z,5.32
2022-08-01T08:29:31.919Z,4.68
2022-08-01T08:32:00.210Z,4.65
2022-08-01T08:34:29.030Z,4.75
2022-08-01T08:36:58.859Z,4.60
2022-08-01T08:39:27.003Z,4.78
2022-08-01T08:41:54.474Z,4.60
2022-08-01T08:44:22.282Z,4.60
2022-08-01T08:46:57.026Z,5.38
2022-08-01T08:49:27.604Z,5.38
2022-08-01T08:52:05.400Z,4.70
2022-08-01T08:54:33.821Z,4.72
2022-08-01T08:57:02.995Z,5.13
2022-08-01T08:59:31.071Z,4.95
2022-08-01T09:01:59.519Z,4.78
2022-08-01T09:04:27.579Z,4.80
2022-08-01T09:06:55.810Z,4.90
2022-08-01T09:09:24.575Z,5.35
2022-08-01T09:11:57.635Z,4.53
2022-08-01T09:14:28.475Z,4.32
2022-08-01T09:17:07.730Z,4.75
2022-08-01T09:19:49.198Z,4.30
2022-08-01T09:22:22.530Z,4.38
2022-08-01T09:25:05.160Z,4.00
2022-08-01T09:27:33.770Z,4.03
2022-08-01T09:30:23.472Z,4.35
2022-08-01T09:33:06.322Z,3.88
2022-08-01T09:35:43.781Z,3.85
2022-08-01T09:38:19.994Z,3.67
2022-08-01T09:41:01.392Z,3.80
2022-08-01T09:43:31.922Z,3.35
2022-08-01T09:46:01.443Z,3.72
2022-08-01T09:48:30.205Z,3.50
2022-08-01T09:51:00.955Z,3.45
2022-08-01T09:53:47.473Z,3.25
2022-08-01T09:56:21.216Z,3.60
2022-08-01T09:58:58.441Z,3.50
2022-08-01T10:01:27.576Z,3.08
2022-08-01T10:04:17.030Z,3.80
2022-08-01T10:06:50.941Z,3.60
2022-08-01T10:09:39.836Z,3.78
2022-08-01T10:12:20.248Z,4.20
2022-08-01T10:14:56.690Z,4.03
2022-08-01T10:17:51.271Z,4.10
2022-08-01T10:20:29.666Z,3.97
2022-08-01T10:23:02.139Z,3.70
2022-08-01T10:25:44.005Z,4.65
2022-08-01T10:28:23.806Z,4.40
2022-08-01T10:30:53.380Z,3.67
2022-08-01T10:33:52.758Z,4.03
2022-08-01T10:36:12.222Z,3.88
2022-08-01T10:38:40.759Z,3.60
2022-08-01T10:41:09.095Z,4.47
2022-08-01T10:43:37.226Z,4.32
2022-08-01T10:46:05.922Z,4.43
2022-08-01T10:48:47.609Z,4.18
2022-08-01T10:51:18.788Z,4.38
2022-08-01T10:53:54.286Z,4.63
2022-08-01T10:56:27.099Z,4.97
2022-08-01T10:59:06.323Z,5.00
2022-08-01T11:01:44.862Z,4.80
2022-08-01T11:04:17.729Z,4.90
2022-08-01T11:07:06.666Z,5.00
2022-08-01T11:09:47.063Z,5.18
2022-08-01T11:12:22.965Z,5.00
2022-08-01T11:15:00.393Z,5.32
2022-08-01T11:17:42.136Z,5.03
2022-08-01T11:20:23.675Z,4.95
2022-08-01T11:23:00.531Z,5.05
2022-08-01T11:26:03.882Z,5.32
2022-08-01T11:28:32.841Z,4.90
2022-08-01T11:31:11.550Z,5.13
2022-08-01T11:33:45.868Z,4.93
2022-08-01T11:36:15.467Z,5.05
2022-08-01T11:38:48.258Z,4.97
2022-08-01T11:41:38.169Z,4.90
2022-08-01T11:44:10.145Z,5.38
2022-08-01T11:47:09.238Z,5.00
2022-08-01T11:49:38.471Z,5.65
2022-08-01T11:52:08.693Z,5.32
2022-08-01T11:54:52.541Z,5.20
2022-08-01T11:57:23.222Z,6.25
2022-08-01T12:00:03.416Z,5.28
2022-08-01T12:02:40.922Z,5.65
2022-08-01T12:05:15.667Z,5.97
2022-08-01T12:07:47.025Z,5.90
2022-08-01T12:10:23.220Z,6.18
2022-08-01T12:12:53.115Z,5.53
2022-08-01T12:15:23.326Z,5.93
2022-08-01T12:17:59.074Z,5.22
2022-08-01T12:20:56.738Z,6.05
2022-08-01T12:23:25.256Z,5.65
2022-08-01T12:25:53.806Z,6.20
2022-08-01T12:28:20.997Z,6.50
2022-08-01T12:30:49.717Z,6.43
2022-08-01T12:33:19.703Z,6.78
2022-08-01T12:35:47.811Z,5.95
2022-08-01T12:38:18.199Z,6.38
2022-08-01T12:40:51.505Z,6.00
2022-08-01T12:43:28.533Z,7.55
2022-08-01T12:46:00.818Z,7.28
2022-08-01T12:48:31.219Z,7.20
2022-08-01T12:51:01.715Z,7.22
2022-08-01T12:53:41.067Z,7.15
2022-08-01T12:56:13.924Z,7.05
2022-08-01T12:58:41.468Z,7.32
2022-08-01T13:01:11.160Z,7.75
2022-08-01T13:03:39.386Z,7.20
2022-08-01T13:06:16.601Z,7.30
2022-08-01T13:08:44.826Z,6.95
2022-08-01T13:11:18.465Z,7.55
2022-08-01T13:13:51.389Z,7.30
2022-08-01T13:16:30.221Z,7.23
2022-08-01T13:19:07.310Z,7.43
2022-08-01T13:21:53.922Z,7.53
2022-08-01T13:24:28.632Z,7.32
2022-08-01T13:29:39.947Z,7.38
2022-08-01T13:32:27.645Z,7.50
2022-08-01T13:35:09.798Z,7.20
2022-08-01T13:37:39.244Z,8.18
2022-08-01T13:40:11.460Z,7.70
2022-08-01T13:42:39.236Z,7.78
2022-08-01T13:45:13.997Z,8.00
2022-08-01T13:48:11.634Z,7.80
2022-08-01T13:50:34.235Z,8.20
2022-08-01T13:53:02.292Z,7.97
2022-08-01T13:55:34.653Z,8.20
2022-08-01T13:58:02.936Z,8.20
2022-08-01T14:00:30.439Z,8.07
2022-08-01T14:02:57.925Z,7.35
2022-08-01T14:05:26.168Z,8.10
2022-08-01T14:07:56.480Z,7.80
2022-08-01T14:10:25.842Z,7.80
2022-08-01T14:12:53.085Z,7.43
2022-08-01T14:15:38.419Z,8.00
2022-08-01T14:18:11.235Z,7.70
2022-08-01T14:20:39.485Z,7.45
2022-08-01T14:23:08.764Z,7.63
2022-08-01T14:26:02.660Z,7.40
2022-08-01T14:28:31.155Z,7.30
2022-08-01T14:33:54.208Z,7.82
2022-08-01T14:36:30.510Z,7.97
2022-08-01T14:39:00.777Z,7.15
2022-08-01T14:41:30.764Z,7.38
2022-08-01T14:44:00.838Z,7.70
2022-08-01T14:46:28.396Z,7.55
2022-08-01T14:48:58.892Z,7.93
2022-08-01T14:51:26.604Z,7.35
2022-08-01T14:53:54.123Z,7.78
2022-08-01T14:56:21.529Z,8.00
2022-08-01T14:58:48.898Z,7.75
2022-08-01T15:01:16.336Z,8.15
2022-08-01T15:03:43.742Z,7.53
2022-08-01T15:06:12.600Z,7.90
2022-08-01T15:08:40.496Z,7.88
2022-08-01T15:11:09.090Z,7.22
2022-08-01T15:13:41.891Z,7.65
2022-08-01T15:16:09.946Z,7.88
2022-08-01T15:18:39.445Z,8.02
2022-08-01T15:21:07.131Z,7.68
2022-08-01T15:23:34.244Z,7.40
2022-08-01T15:26:01.609Z,7.82
2022-08-01T15:28:28.857Z,8.32
2022-08-01T15:30:58.808Z,8.10
2022-08-01T15:33:26.260Z,7.80
2022-08-01T15:35:53.955Z,7.65
2022-08-01T15:38:22.836Z,8.40
2022-08-01T15:40:50.225Z,8.63
2022-08-01T15:43:17.498Z,7.90
2022-08-01T15:45:48.666Z,8.45
2022-08-01T15:48:17.694Z,7.95
2022-08-01T15:50:46.975Z,8.30
2022-08-01T15:53:14.634Z,7.80
2022-08-01T15:55:42.169Z,8.07
2022-08-01T15:58:19.597Z,7.82
2022-08-01T16:00:46.820Z,7.68
2022-08-01T16:03:14.353Z,7.85
2022-08-01T16:05:44.345Z,8.38
2022-08-01T16:08:13.636Z,7.63
2022-08-01T16:10:43.596Z,7.35
2022-08-01T16:13:11.802Z,7.82
2022-08-01T16:15:39.580Z,8.00
2022-08-01T16:18:16.660Z,8.02
2022-08-01T16:20:46.039Z,7.43
2022-08-01T16:23:15.226Z,8.38
2022-08-01T16:25:44.227Z,8.07
2022-08-01T16:28:12.136Z,8.30
2022-08-01T16:30:50.929Z,8.40
2022-08-01T16:33:41.431Z,8.30
2022-08-01T16:36:16.928Z,8.48
2022-08-01T16:38:45.115Z,8.20
2022-08-01T16:41:20.346Z,8.30
2022-08-01T16:43:53.447Z,8.75
2022-08-01T16:46:24.059Z,8.27
2022-08-01T16:48:51.766Z,8.43
2022-08-01T16:51:20.209Z,8.45
2022-08-01T16:53:47.431Z,8.50
2022-08-01T16:56:14.797Z,8.68
2022-08-01T16:58:42.745Z,8.88
2022-08-01T17:01:58.618Z,9.60
2022-08-01T17:04:01.225Z,8.90
2022-08-01T17:06:29.914Z,9.00
2022-08-01T17:08:57.047Z,9.07
2022-08-01T17:11:24.347Z,9.38
2022-08-01T17:13:51.532Z,9.07
2022-08-01T17:16:19.062Z,9.90
2022-08-01T17:18:46.311Z,9.77
2022-08-01T17:21:13.629Z,9.55
2022-08-01T17:23:41.114Z,9.57
2022-08-01T17:26:08.289Z,9.25
2022-08-01T17:28:35.690Z,9.85
2022-08-01T17:31:02.942Z,9.13
2022-08-01T17:34:04.717Z,9.10
2022-08-01T17:36:32.128Z,9.32
2022-08-01T17:38:59.994Z,8.85
2022-08-01T17:41:27.304Z,9.07
2022-08-01T17:43:54.673Z,9.00
2022-08-01T17:46:21.997Z,9.40
2022-08-01T17:48:50.007Z,9.35
2022-08-01T17:51:22.495Z,9.48
2022-08-01T17:53:56.945Z,9.00
2022-08-01T17:56:27.249Z,9.32
2022-08-01T17:58:54.509Z,9.20
2022-08-01T18:01:22.068Z,9.57
2022-08-01T18:03:55.638Z,9.50
2022-08-01T18:06:25.127Z,9.15
2022-08-01T18:08:55.220Z,9.35
2022-08-01T18:11:24.745Z,9.02
2022-08-01T18:13:57.841Z,8.98
2022-08-01T18:16:27.267Z,8.85
2022-08-01T18:18:56.159Z,8.73
2022-08-01T18:21:23.886Z,8.57
2022-08-01T18:23:52.095Z,7.63
2022-08-01T18:26:23.162Z,7.68
2022-08-01T18:28:50.847Z,8.32
2022-08-01T18:31:20.582Z,7.20
2022-08-01T18:33:48.712Z,6.88
2022-08-01T18:36:28.291Z,7.20
2022-08-01T18:39:01.768Z,6.70
2022-08-01T18:41:30.964Z,6.60
2022-08-01T18:44:03.864Z,6.32
2022-08-01T18:46:33.319Z,6.38
2022-08-01T18:49:00.647Z,6.35
2022-08-01T18:51:28.762Z,6.78
2022-08-01T18:53:57.963Z,6.40
2022-08-01T18:56:25.433Z,6.53
2022-08-01T18:58:54.676Z,6.50
2022-08-01T19:01:22.992Z,6.22
2022-08-01T19:03:50.495Z,6.35
2022-08-01T19:06:18.048Z,6.40
2022-08-01T19:08:46.180Z,6.68
2022-08-01T19:11:13.606Z,6.43
2022-08-01T19:13:41.191Z,6.20
2022-08-01T19:16:08.724Z,5.93
2022-08-01T19:18:36.027Z,6.38
2022-08-01T19:21:06.832Z,6.10
2022-08-01T19:23:53.649Z,6.55
2022-08-01T19:26:26.055Z,5.88
2022-08-01T19:29:01.516Z,5.65
2022-08-01T19:31:29.806Z,5.80
2022-08-01T19:33:57.930Z,5.57
2022-08-01T19:36:25.513Z,5.72
2022-08-01T19:38:54.804Z,5.32
2022-08-01T19:41:23.168Z,5.20
2022-08-01T19:43:51.667Z,5.72
2022-08-01T19:46:19.075Z,4.90
2022-08-01T19:48:53.089Z,5.30
2022-08-01T19:51:33.019Z,4.95
2022-08-01T19:54:05.251Z,4.80
2022-08-01T19:56:40.574Z,4.95
2022-08-01T19:59:09.141Z,4.70
2022-08-01T20:01:37.438Z,4.55
2022-08-01T20:04:05.227Z,4.50
2022-08-01T20:06:35.009Z,4.28
2022-08-01T20:09:03.434Z,4.22
2022-08-01T20:11:31.625Z,4.68
2022-08-01T20:14:00.636Z,4.65
2022-08-01T20:16:29.476Z,4.38
2022-08-01T20:18:56.998Z,4.20
2022-08-01T20:21:26.979Z,4.10
2022-08-01T20:24:02.775Z,4.40
2022-08-01T20:26:31.549Z,4.50
2022-08-01T20:29:00.795Z,3.92
2022-08-01T20:31:33.948Z,4.43
2022-08-01T20:34:15.671Z,4.47
2022-08-01T20:36:54.359Z,4.35
2022-08-01T20:39:24.599Z,4.25
2022-08-01T20:42:00.235Z,4.18
2022-08-01T20:44:32.624Z,4.05
2022-08-01T20:47:01.433Z,4.40
2022-08-01T20:49:29.811Z,4.40
2022-08-01T20:51:57.310Z,4.30
2022-08-01T20:54:24.557Z,4.30
2022-08-01T20:57:00.762Z,4.18
2022-08-01T20:59:56.731Z,5.10
2022-08-01T21:02:52.440Z,4.20
2022-08-01T21:05:30.452Z,4.35
2022-08-01T21:08:24.451Z,4.72
2022-08-01T21:10:57.878Z,4.53
2022-08-01T21:13:45.890Z,4.25
2022-08-01T21:16:24.166Z,4.53
2022-08-01T21:19:19.682Z,4.20
2022-08-01T21:22:00.916Z,4.50
2022-08-01T21:24:42.169Z,4.03
2022-08-01T21:27:10.315Z,4.38
2022-08-01T21:29:38.576Z,4.50
2022-08-01T21:32:15.594Z,4.38
2022-08-01T21:34:47.235Z,4.32
2022-08-01T21:37:17.409Z,4.53
2022-08-01T21:39:46.143Z,4.40
2022-08-01T21:42:18.993Z,4.68
2022-08-01T21:44:47.668Z,4.38
2022-08-01T21:47:16.762Z,4.47
2022-08-01T21:49:44.723Z,4.60
2022-08-01T21:52:21.827Z,4.43
2022-08-01T21:55:05.286Z,4.63
2022-08-01T21:57:53.632Z,4.53
2022-08-01T22:00:25.503Z,4.53
2022-08-01T22:03:12.069Z,4.55
2022-08-01T22:05:50.207Z,4.63
2022-08-01T22:08:44.806Z,4.68
2022-08-01T22:11:15.262Z,4.30
2022-08-01T22:13:42.523Z,4.63
2022-08-01T22:16:13.091Z,4.40
2022-08-01T22:18:40.310Z,4.78
2022-08-01T22:21:08.438Z,4.80
2022-08-01T22:23:37.020Z,4.63
2022-08-01T22:26:09.591Z,4.60
2022-08-01T22:28:38.653Z,4.53
2022-08-01T22:31:06.979Z,4.80
2022-08-01T22:33:39.106Z,4.47
2022-08-01T22:36:07.742Z,4.88
2022-08-01T22:38:35.559Z,4.80
2022-08-01T22:41:09.525Z,4.55
2022-08-01T22:46:48.334Z,4.35
2022-08-01T22:49:50.093Z,4.45
2022-08-01T22:52:24.429Z,4.68
2022-08-01T22:55:06.089Z,4.97
2022-08-01T22:57:51.188Z,4.72
2022-08-01T23:00:19.064Z,5.30
2022-08-01T23:02:48.313Z,4.97
2022-08-01T23:05:23.331Z,4.90
2022-08-01T23:07:53.909Z,5.03
2022-08-01T23:10:24.075Z,4.65
2022-08-01T23:12:52.684Z,4.60
2022-08-01T23:15:21.668Z,4.97
2022-08-01T23:17:49.749Z,4.63
2022-08-01T23:20:18.277Z,4.72
2022-08-01T23:22:45.570Z,4.63
2022-08-01T23:25:17.075Z,5.10
2022-08-01T23:27:51.830Z,5.25
2022-08-01T23:30:35.315Z,4.80
2022-08-01T23:33:02.837Z,4.70
2022-08-01T23:35:30.987Z,4.80
2022-08-01T23:38:02.710Z,5.18
2022-08-01T23:40:32.641Z,4.80
2022-08-01T23:43:02.034Z,4.88
2022-08-01T23:45:38.203Z,4.88
2022-08-01T23:48:17.914Z,4.72
2022-08-01T23:50:45.124Z,4.85
2022-08-01T23:53:13.088Z,4.85
2022-08-01T23:55:43.244Z,5.10
2022-08-01T23:58:12.061Z,4.63
